sensor_id;sensor_type;location;lat;lon;timestamp;temperature;humidity
69359;HTU21D;56520;49.066;8.660;2024-02-21T00:00:46;6.11;88.21
69359;HTU21D;56520;49.066;8.660;2024-02-21T00:03:11;6.13;88.35
69359;HTU21D;56520;49.066;8.660;2024-02-21T00:05:37;6.17;88.20
69359;HTU21D;56520;49.066;8.660;2024-02-21T00:08:02;6.24;87.99
69359;HTU21D;56520;49.066;8.660;2024-02-21T00:10:28;6.28;87.81
69359;HTU21D;56520;49.066;8.660;2024-02-21T00:12:54;6.35;87.63
69359;HTU21D;56520;49.066;8.660;2024-02-21T00:15:20;6.41;87.44
69359;HTU21D;56520;49.066;8.660;2024-02-21T00:17:46;6.48;87.24
69359;HTU21D;56520;49.066;8.660;2024-02-21T00:20:12;6.53;87.08
69359;HTU21D;56520;49.066;8.660;2024-02-21T00:22:38;6.56;86.64
69359;HTU21D;56520;49.066;8.660;2024-02-21T00:25:04;6.70;86.06
69359;HTU21D;56520;49.066;8.660;2024-02-21T00:27:29;6.76;85.68
69359;HTU21D;56520;49.066;8.660;2024-02-21T00:29:56;6.84;85.06
69359;HTU21D;56520;49.066;8.660;2024-02-21T00:32:21;6.96;84.10
69359;HTU21D;56520;49.066;8.660;2024-02-21T00:34:47;7.02;84.02
69359;HTU21D;56520;49.066;8.660;2024-02-21T00:37:12;7.08;83.80
69359;HTU21D;56520;49.066;8.660;2024-02-21T00:39:37;7.17;82.76
69359;HTU21D;56520;49.066;8.660;2024-02-21T00:42:03;7.37;81.17
69359;HTU21D;56520;49.066;8.660;2024-02-21T00:44:29;7.39;81.68
69359;HTU21D;56520;49.066;8.660;2024-02-21T00:46:54;7.35;81.94
69359;HTU21D;56520;49.066;8.660;2024-02-21T00:49:20;7.38;81.23
69359;HTU21D;56520;49.066;8.660;2024-02-21T00:51:47;7.39;81.02
69359;HTU21D;56520;49.066;8.660;2024-02-21T00:54:12;7.45;80.81
69359;HTU21D;56520;49.066;8.660;2024-02-21T00:56:38;7.55;80.24
69359;HTU21D;56520;49.066;8.660;2024-02-21T00:59:03;7.56;80.28
69359;HTU21D;56520;49.066;8.660;2024-02-21T01:01:29;7.62;79.85
69359;HTU21D;56520;49.066;8.660;2024-02-21T01:03:54;7.63;80.10
69359;HTU21D;56520;49.066;8.660;2024-02-21T01:06:20;7.57;80.60
69359;HTU21D;56520;49.066;8.660;2024-02-21T01:08:47;7.54;80.93
69359;HTU21D;56520;49.066;8.660;2024-02-21T01:11:16;7.50;81.20
69359;HTU21D;56520;49.066;8.660;2024-02-21T01:13:41;7.48;81.27
69359;HTU21D;56520;49.066;8.660;2024-02-21T01:16:07;7.55;80.79
69359;HTU21D;56520;49.066;8.660;2024-02-21T01:18:38;7.55;80.92
69359;HTU21D;56520;49.066;8.660;2024-02-21T01:21:07;7.57;81.09
69359;HTU21D;56520;49.066;8.660;2024-02-21T01:23:34;7.53;81.42
69359;HTU21D;56520;49.066;8.660;2024-02-21T01:26:00;7.58;81.10
69359;HTU21D;56520;49.066;8.660;2024-02-21T01:28:25;7.58;81.23
69359;HTU21D;56520;49.066;8.660;2024-02-21T01:30:51;7.55;81.72
69359;HTU21D;56520;49.066;8.660;2024-02-21T01:33:17;7.53;81.90
69359;HTU21D;56520;49.066;8.660;2024-02-21T01:35:42;7.47;82.11
69359;HTU21D;56520;49.066;8.660;2024-02-21T01:38:08;7.44;82.50
69359;HTU21D;56520;49.066;8.660;2024-02-21T01:40:33;7.42;82.71
69359;HTU21D;56520;49.066;8.660;2024-02-21T01:42:59;7.37;83.09
69359;HTU21D;56520;49.066;8.660;2024-02-21T01:45:24;7.31;83.69
69359;HTU21D;56520;49.066;8.660;2024-02-21T01:47:50;7.29;84.58
69359;HTU21D;56520;49.066;8.660;2024-02-21T01:50:16;7.29;83.91
69359;HTU21D;56520;49.066;8.660;2024-02-21T01:52:43;7.25;83.75
69359;HTU21D;56520;49.066;8.660;2024-02-21T01:55:16;7.22;84.13
69359;HTU21D;56520;49.066;8.660;2024-02-21T01:57:43;7.18;84.28
69359;HTU21D;56520;49.066;8.660;2024-02-21T02:00:14;7.18;84.50
69359;HTU21D;56520;49.066;8.660;2024-02-21T02:02:41;7.18;84.28
69359;HTU21D;56520;49.066;8.660;2024-02-21T02:05:07;7.15;84.49
69359;HTU21D;56520;49.066;8.660;2024-02-21T02:07:33;7.11;84.56
69359;HTU21D;56520;49.066;8.660;2024-02-21T02:09:59;7.02;84.75
69359;HTU21D;56520;49.066;8.660;2024-02-21T02:12:25;6.97;84.97
69359;HTU21D;56520;49.066;8.660;2024-02-21T02:15:00;6.95;85.12
69359;HTU21D;56520;49.066;8.660;2024-02-21T02:17:26;6.89;85.21
69359;HTU21D;56520;49.066;8.660;2024-02-21T02:19:51;6.86;85.40
69359;HTU21D;56520;49.066;8.660;2024-02-21T02:22:22;6.82;85.55
69359;HTU21D;56520;49.066;8.660;2024-02-21T02:24:47;6.81;85.73
69359;HTU21D;56520;49.066;8.660;2024-02-21T02:27:13;6.78;85.75
69359;HTU21D;56520;49.066;8.660;2024-02-21T02:29:38;6.73;85.84
69359;HTU21D;56520;49.066;8.660;2024-02-21T02:32:04;6.72;86.00
69359;HTU21D;56520;49.066;8.660;2024-02-21T02:34:30;6.69;86.19
69359;HTU21D;56520;49.066;8.660;2024-02-21T02:36:56;6.67;86.31
69359;HTU21D;56520;49.066;8.660;2024-02-21T02:39:21;6.63;86.47
69359;HTU21D;56520;49.066;8.660;2024-02-21T02:41:47;6.58;86.58
69359;HTU21D;56520;49.066;8.660;2024-02-21T02:44:12;6.57;86.70
69359;HTU21D;56520;49.066;8.660;2024-02-21T02:46:40;6.55;86.86
69359;HTU21D;56520;49.066;8.660;2024-02-21T02:49:06;6.51;86.98
69359;HTU21D;56520;49.066;8.660;2024-02-21T02:51:32;6.46;87.15
69359;HTU21D;56520;49.066;8.660;2024-02-21T02:53:57;6.44;87.34
69359;HTU21D;56520;49.066;8.660;2024-02-21T02:56:23;6.42;87.48
69359;HTU21D;56520;49.066;8.660;2024-02-21T02:58:48;6.40;87.64
69359;HTU21D;56520;49.066;8.660;2024-02-21T03:01:13;6.38;88.14
69359;HTU21D;56520;49.066;8.660;2024-02-21T03:03:40;6.38;87.99
69359;HTU21D;56520;49.066;8.660;2024-02-21T03:06:05;6.35;87.83
69359;HTU21D;56520;49.066;8.660;2024-02-21T03:08:31;6.36;87.86
69359;HTU21D;56520;49.066;8.660;2024-02-21T03:10:58;6.43;87.42
69359;HTU21D;56520;49.066;8.660;2024-02-21T03:13:25;6.43;87.18
69359;HTU21D;56520;49.066;8.660;2024-02-21T03:15:50;6.55;85.78
69359;HTU21D;56520;49.066;8.660;2024-02-21T03:18:18;6.64;85.15
69359;HTU21D;56520;49.066;8.660;2024-02-21T03:20:44;6.63;84.64
69359;HTU21D;56520;49.066;8.660;2024-02-21T03:23:09;6.63;84.71
69359;HTU21D;56520;49.066;8.660;2024-02-21T03:25:34;6.59;84.58
69359;HTU21D;56520;49.066;8.660;2024-02-21T03:28:00;6.54;84.73
69359;HTU21D;56520;49.066;8.660;2024-02-21T03:30:25;6.46;85.00
69359;HTU21D;56520;49.066;8.660;2024-02-21T03:32:51;6.42;85.00
69359;HTU21D;56520;49.066;8.660;2024-02-21T03:35:16;6.41;85.00
69359;HTU21D;56520;49.066;8.660;2024-02-21T03:37:42;6.39;84.55
69359;HTU21D;56520;49.066;8.660;2024-02-21T03:40:10;6.44;84.26
69359;HTU21D;56520;49.066;8.660;2024-02-21T03:42:35;6.54;83.92
69359;HTU21D;56520;49.066;8.660;2024-02-21T03:45:00;6.56;83.98
69359;HTU21D;56520;49.066;8.660;2024-02-21T03:47:26;6.61;83.53
69359;HTU21D;56520;49.066;8.660;2024-02-21T03:49:52;6.63;83.44
69359;HTU21D;56520;49.066;8.660;2024-02-21T03:52:17;6.65;83.22
69359;HTU21D;56520;49.066;8.660;2024-02-21T03:54:43;6.65;83.34
69359;HTU21D;56520;49.066;8.660;2024-02-21T03:57:08;6.60;83.42
69359;HTU21D;56520;49.066;8.660;2024-02-21T03:59:33;6.53;83.72
69359;HTU21D;56520;49.066;8.660;2024-02-21T04:01:59;6.46;84.01
69359;HTU21D;56520;49.066;8.660;2024-02-21T04:04:25;6.41;84.26
69359;HTU21D;56520;49.066;8.660;2024-02-21T04:06:51;6.34;84.48
69359;HTU21D;56520;49.066;8.660;2024-02-21T04:09:17;6.25;84.70
69359;HTU21D;56520;49.066;8.660;2024-02-21T04:11:43;6.16;85.05
69359;HTU21D;56520;49.066;8.660;2024-02-21T04:14:08;6.10;85.26
69359;HTU21D;56520;49.066;8.660;2024-02-21T04:16:34;6.02;85.48
69359;HTU21D;56520;49.066;8.660;2024-02-21T04:19:00;5.95;85.71
69359;HTU21D;56520;49.066;8.660;2024-02-21T04:21:27;5.92;85.90
69359;HTU21D;56520;49.066;8.660;2024-02-21T04:23:52;5.86;86.14
69359;HTU21D;56520;49.066;8.660;2024-02-21T04:26:18;5.92;86.22
69359;HTU21D;56520;49.066;8.660;2024-02-21T04:28:45;5.90;86.26
69359;HTU21D;56520;49.066;8.660;2024-02-21T04:31:10;5.86;86.30
69359;HTU21D;56520;49.066;8.660;2024-02-21T04:33:36;5.83;86.31
69359;HTU21D;56520;49.066;8.660;2024-02-21T04:36:01;5.74;86.47
69359;HTU21D;56520;49.066;8.660;2024-02-21T04:38:27;5.67;86.61
69359;HTU21D;56520;49.066;8.660;2024-02-21T04:40:54;5.61;86.80
69359;HTU21D;56520;49.066;8.660;2024-02-21T04:43:20;5.56;86.90
69359;HTU21D;56520;49.066;8.660;2024-02-21T04:45:45;5.50;86.98
69359;HTU21D;56520;49.066;8.660;2024-02-21T04:48:10;5.48;87.07
69359;HTU21D;56520;49.066;8.660;2024-02-21T04:50:36;5.39;87.13
69359;HTU21D;56520;49.066;8.660;2024-02-21T04:53:02;5.36;87.32
69359;HTU21D;56520;49.066;8.660;2024-02-21T04:55:27;5.32;87.48
69359;HTU21D;56520;49.066;8.660;2024-02-21T04:57:53;5.28;87.54
69359;HTU21D;56520;49.066;8.660;2024-02-21T05:00:19;5.25;87.64
69359;HTU21D;56520;49.066;8.660;2024-02-21T05:02:45;5.22;88.14
69359;HTU21D;56520;49.066;8.660;2024-02-21T05:05:13;5.22;88.18
69359;HTU21D;56520;49.066;8.660;2024-02-21T05:07:40;5.25;88.25
69359;HTU21D;56520;49.066;8.660;2024-02-21T05:10:07;5.32;88.56
69359;HTU21D;56520;49.066;8.660;2024-02-21T05:12:32;5.33;88.44
69359;HTU21D;56520;49.066;8.660;2024-02-21T05:14:58;5.32;88.29
69359;HTU21D;56520;49.066;8.660;2024-02-21T05:17:23;5.28;88.26
69359;HTU21D;56520;49.066;8.660;2024-02-21T05:19:48;5.25;88.22
69359;HTU21D;56520;49.066;8.660;2024-02-21T05:22:14;5.23;88.24
69359;HTU21D;56520;49.066;8.660;2024-02-21T05:24:39;5.18;88.34
69359;HTU21D;56520;49.066;8.660;2024-02-21T05:27:05;5.13;88.60
69359;HTU21D;56520;49.066;8.660;2024-02-21T05:29:31;5.08;88.64
69359;HTU21D;56520;49.066;8.660;2024-02-21T05:31:56;5.04;88.67
69359;HTU21D;56520;49.066;8.660;2024-02-21T05:34:22;4.96;88.78
69359;HTU21D;56520;49.066;8.660;2024-02-21T05:36:48;4.92;88.89
69359;HTU21D;56520;49.066;8.660;2024-02-21T05:39:15;4.84;89.05
69359;HTU21D;56520;49.066;8.660;2024-02-21T05:41:41;4.81;89.17
69359;HTU21D;56520;49.066;8.660;2024-02-21T05:44:07;4.80;89.20
69359;HTU21D;56520;49.066;8.660;2024-02-21T05:46:32;4.79;89.19
69359;HTU21D;56520;49.066;8.660;2024-02-21T05:48:58;4.78;89.22
69359;HTU21D;56520;49.066;8.660;2024-02-21T05:51:23;4.77;89.24
69359;HTU21D;56520;49.066;8.660;2024-02-21T05:53:49;4.69;89.35
69359;HTU21D;56520;49.066;8.660;2024-02-21T05:56:15;4.65;89.54
69359;HTU21D;56520;49.066;8.660;2024-02-21T05:58:41;4.59;89.70
69359;HTU21D;56520;49.066;8.660;2024-02-21T06:01:07;4.49;89.86
69359;HTU21D;56520;49.066;8.660;2024-02-21T06:03:33;4.44;90.09
69359;HTU21D;56520;49.066;8.660;2024-02-21T06:06:00;4.43;90.22
69359;HTU21D;56520;49.066;8.660;2024-02-21T06:08:26;4.36;90.31
69359;HTU21D;56520;49.066;8.660;2024-02-21T06:10:51;4.30;90.50
69359;HTU21D;56520;49.066;8.660;2024-02-21T06:13:26;4.22;90.71
69359;HTU21D;56520;49.066;8.660;2024-02-21T06:15:52;4.18;90.85
69359;HTU21D;56520;49.066;8.660;2024-02-21T06:18:18;4.12;91.00
69359;HTU21D;56520;49.066;8.660;2024-02-21T06:20:43;4.08;91.31
69359;HTU21D;56520;49.066;8.660;2024-02-21T06:23:09;4.05;91.55
69359;HTU21D;56520;49.066;8.660;2024-02-21T06:25:35;4.05;91.63
69359;HTU21D;56520;49.066;8.660;2024-02-21T06:28:00;4.03;91.68
69359;HTU21D;56520;49.066;8.660;2024-02-21T06:30:26;4.01;91.75
69359;HTU21D;56520;49.066;8.660;2024-02-21T06:32:52;3.99;91.81
69359;HTU21D;56520;49.066;8.660;2024-02-21T06:35:17;4.01;91.88
69359;HTU21D;56520;49.066;8.660;2024-02-21T06:37:43;4.01;91.98
69359;HTU21D;56520;49.066;8.660;2024-02-21T06:40:10;4.03;92.28
69359;HTU21D;56520;49.066;8.660;2024-02-21T06:42:36;4.06;92.42
69359;HTU21D;56520;49.066;8.660;2024-02-21T06:45:01;4.08;92.49
69359;HTU21D;56520;49.066;8.660;2024-02-21T06:47:27;4.13;92.74
69359;HTU21D;56520;49.066;8.660;2024-02-21T06:49:52;4.15;93.04
69359;HTU21D;56520;49.066;8.660;2024-02-21T06:52:18;4.18;93.13
69359;HTU21D;56520;49.066;8.660;2024-02-21T06:54:48;4.21;93.30
69359;HTU21D;56520;49.066;8.660;2024-02-21T06:57:14;4.22;93.51
69359;HTU21D;56520;49.066;8.660;2024-02-21T06:59:41;4.26;93.75
69359;HTU21D;56520;49.066;8.660;2024-02-21T07:02:06;4.30;93.87
69359;HTU21D;56520;49.066;8.660;2024-02-21T07:04:32;4.31;93.90
69359;HTU21D;56520;49.066;8.660;2024-02-21T07:06:58;4.35;94.00
69359;HTU21D;56520;49.066;8.660;2024-02-21T07:09:23;4.41;94.04
69359;HTU21D;56520;49.066;8.660;2024-02-21T07:11:49;4.48;94.07
69359;HTU21D;56520;49.066;8.660;2024-02-21T07:14:14;4.54;94.01
69359;HTU21D;56520;49.066;8.660;2024-02-21T07:16:40;4.58;93.92
69359;HTU21D;56520;49.066;8.660;2024-02-21T07:19:06;4.67;93.87
69359;HTU21D;56520;49.066;8.660;2024-02-21T07:21:32;4.75;93.79
69359;HTU21D;56520;49.066;8.660;2024-02-21T07:24:00;4.84;93.75
69359;HTU21D;56520;49.066;8.660;2024-02-21T07:26:25;4.92;93.66
69359;HTU21D;56520;49.066;8.660;2024-02-21T07:28:51;4.97;93.50
69359;HTU21D;56520;49.066;8.660;2024-02-21T07:31:16;5.06;93.40
69359;HTU21D;56520;49.066;8.660;2024-02-21T07:33:42;5.12;93.44
69359;HTU21D;56520;49.066;8.660;2024-02-21T07:36:10;5.21;93.48
69359;HTU21D;56520;49.066;8.660;2024-02-21T07:38:36;5.28;93.38
69359;HTU21D;56520;49.066;8.660;2024-02-21T07:41:02;5.36;93.22
69359;HTU21D;56520;49.066;8.660;2024-02-21T07:43:29;5.47;93.10
69359;HTU21D;56520;49.066;8.660;2024-02-21T07:45:55;5.56;92.89
69359;HTU21D;56520;49.066;8.660;2024-02-21T07:48:21;5.70;92.57
69359;HTU21D;56520;49.066;8.660;2024-02-21T07:50:50;5.80;92.21
69359;HTU21D;56520;49.066;8.660;2024-02-21T07:53:16;5.91;91.87
69359;HTU21D;56520;49.066;8.660;2024-02-21T07:55:41;6.00;91.63
69359;HTU21D;56520;49.066;8.660;2024-02-21T07:58:09;6.11;91.32
69359;HTU21D;56520;49.066;8.660;2024-02-21T08:00:34;6.21;91.11
69359;HTU21D;56520;49.066;8.660;2024-02-21T08:03:00;6.31;90.50
69359;HTU21D;56520;49.066;8.660;2024-02-21T08:05:25;6.41;90.48
69359;HTU21D;56520;49.066;8.660;2024-02-21T08:07:51;6.53;90.31
69359;HTU21D;56520;49.066;8.660;2024-02-21T08:10:16;6.66;89.76
69359;HTU21D;56520;49.066;8.660;2024-02-21T08:12:42;6.76;89.35
69359;HTU21D;56520;49.066;8.660;2024-02-21T08:15:08;6.89;89.10
69359;HTU21D;56520;49.066;8.660;2024-02-21T08:17:36;7.01;88.96
69359;HTU21D;56520;49.066;8.660;2024-02-21T08:20:01;7.13;88.75
69359;HTU21D;56520;49.066;8.660;2024-02-21T08:22:28;7.26;88.54
69359;HTU21D;56520;49.066;8.660;2024-02-21T08:24:56;7.38;88.22
69359;HTU21D;56520;49.066;8.660;2024-02-21T08:27:22;7.48;87.18
69359;HTU21D;56520;49.066;8.660;2024-02-21T08:29:47;7.56;87.12
69359;HTU21D;56520;49.066;8.660;2024-02-21T08:32:13;7.65;86.80
69359;HTU21D;56520;49.066;8.660;2024-02-21T08:34:38;7.74;86.56
69359;HTU21D;56520;49.066;8.660;2024-02-21T08:37:04;7.83;86.53
69359;HTU21D;56520;49.066;8.660;2024-02-21T08:39:29;7.91;86.35
69359;HTU21D;56520;49.066;8.660;2024-02-21T08:41:55;8.00;86.23
69359;HTU21D;56520;49.066;8.660;2024-02-21T08:44:27;8.08;86.08
69359;HTU21D;56520;49.066;8.660;2024-02-21T08:46:53;8.17;85.82
69359;HTU21D;56520;49.066;8.660;2024-02-21T08:49:18;8.23;85.17
69359;HTU21D;56520;49.066;8.660;2024-02-21T08:51:44;8.30;85.06
69359;HTU21D;56520;49.066;8.660;2024-02-21T08:54:11;8.36;84.34
69359;HTU21D;56520;49.066;8.660;2024-02-21T08:56:37;8.41;83.50
69359;HTU21D;56520;49.066;8.660;2024-02-21T08:59:02;8.41;82.36
69359;HTU21D;56520;49.066;8.660;2024-02-21T09:01:29;8.35;82.73
69359;HTU21D;56520;49.066;8.660;2024-02-21T09:03:55;8.33;82.81
69359;HTU21D;56520;49.066;8.660;2024-02-21T09:06:22;8.39;82.87
69359;HTU21D;56520;49.066;8.660;2024-02-21T09:08:47;8.49;82.12
69359;HTU21D;56520;49.066;8.660;2024-02-21T09:11:13;8.64;82.44
69359;HTU21D;56520;49.066;8.660;2024-02-21T09:13:41;8.79;82.33
69359;HTU21D;56520;49.066;8.660;2024-02-21T09:16:07;8.83;81.82
69359;HTU21D;56520;49.066;8.660;2024-02-21T09:18:34;8.91;82.01
69359;HTU21D;56520;49.066;8.660;2024-02-21T09:21:00;9.07;82.14
69359;HTU21D;56520;49.066;8.660;2024-02-21T09:23:26;9.29;82.32
69359;HTU21D;56520;49.066;8.660;2024-02-21T09:26:06;9.52;82.17
69359;HTU21D;56520;49.066;8.660;2024-02-21T09:28:43;9.95;81.63
69359;HTU21D;56520;49.066;8.660;2024-02-21T09:31:12;10.14;80.78
69359;HTU21D;56520;49.066;8.660;2024-02-21T09:33:38;10.37;77.60
69359;HTU21D;56520;49.066;8.660;2024-02-21T09:36:04;10.66;74.44
69359;HTU21D;56520;49.066;8.660;2024-02-21T09:38:33;11.17;74.59
69359;HTU21D;56520;49.066;8.660;2024-02-21T09:41:18;11.70;73.44
69359;HTU21D;56520;49.066;8.660;2024-02-21T09:43:44;11.87;73.61
69359;HTU21D;56520;49.066;8.660;2024-02-21T09:46:18;12.15;67.04
69359;HTU21D;56520;49.066;8.660;2024-02-21T09:51:51;12.27;64.89
69359;HTU21D;56520;49.066;8.660;2024-02-21T09:54:19;12.28;63.19
69359;HTU21D;56520;49.066;8.660;2024-02-21T09:56:46;12.20;65.43
69359;HTU21D;56520;49.066;8.660;2024-02-21T09:59:15;12.23;63.89
69359;HTU21D;56520;49.066;8.660;2024-02-21T10:01:42;12.17;64.86
69359;HTU21D;56520;49.066;8.660;2024-02-21T10:04:09;12.15;63.35
69359;HTU21D;56520;49.066;8.660;2024-02-21T10:06:35;12.01;64.56
69359;HTU21D;56520;49.066;8.660;2024-02-21T10:09:03;11.94;64.58
69359;HTU21D;56520;49.066;8.660;2024-02-21T10:11:29;11.98;64.18
69359;HTU21D;56520;49.066;8.660;2024-02-21T10:14:07;12.03;63.55
69359;HTU21D;56520;49.066;8.660;2024-02-21T10:16:33;12.05;64.35
69359;HTU21D;56520;49.066;8.660;2024-02-21T10:18:59;12.11;63.85
69359;HTU21D;56520;49.066;8.660;2024-02-21T10:21:25;12.10;62.02
69359;HTU21D;56520;49.066;8.660;2024-02-21T10:23:51;12.03;62.79
69359;HTU21D;56520;49.066;8.660;2024-02-21T10:26:19;12.03;63.26
69359;HTU21D;56520;49.066;8.660;2024-02-21T10:28:44;12.17;63.83
69359;HTU21D;56520;49.066;8.660;2024-02-21T10:31:22;12.31;61.43
69359;HTU21D;56520;49.066;8.660;2024-02-21T10:33:56;12.22;60.92
69359;HTU21D;56520;49.066;8.660;2024-02-21T10:36:21;12.03;61.94
69359;HTU21D;56520;49.066;8.660;2024-02-21T10:38:47;11.93;61.76
69359;HTU21D;56520;49.066;8.660;2024-02-21T10:41:14;11.92;62.16
69359;HTU21D;56520;49.066;8.660;2024-02-21T10:43:41;11.92;62.07
69359;HTU21D;56520;49.066;8.660;2024-02-21T10:46:07;12.00;62.47
69359;HTU21D;56520;49.066;8.660;2024-02-21T10:48:44;12.17;62.45
69359;HTU21D;56520;49.066;8.660;2024-02-21T10:51:17;12.30;62.24
69359;HTU21D;56520;49.066;8.660;2024-02-21T10:54:13;12.37;61.42
69359;HTU21D;56520;49.066;8.660;2024-02-21T10:56:33;12.44;60.93
69359;HTU21D;56520;49.066;8.660;2024-02-21T10:59:05;12.45;60.61
69359;HTU21D;56520;49.066;8.660;2024-02-21T11:01:31;12.45;60.61
69359;HTU21D;56520;49.066;8.660;2024-02-21T11:04:03;12.45;59.10
69359;HTU21D;56520;49.066;8.660;2024-02-21T11:06:29;12.34;59.73
69359;HTU21D;56520;49.066;8.660;2024-02-21T11:09:05;12.27;59.33
69359;HTU21D;56520;49.066;8.660;2024-02-21T11:16:36;12.04;60.15
69359;HTU21D;56520;49.066;8.660;2024-02-21T11:19:10;12.06;61.30
69359;HTU21D;56520;49.066;8.660;2024-02-21T11:21:44;12.13;59.78
69359;HTU21D;56520;49.066;8.660;2024-02-21T11:24:09;12.10;59.86
69359;HTU21D;56520;49.066;8.660;2024-02-21T11:26:37;12.10;60.17
69359;HTU21D;56520;49.066;8.660;2024-02-21T11:29:03;12.11;60.25
69359;HTU21D;56520;49.066;8.660;2024-02-21T11:31:41;12.17;60.27
69359;HTU21D;56520;49.066;8.660;2024-02-21T11:34:10;12.27;60.51
69359;HTU21D;56520;49.066;8.660;2024-02-21T11:36:36;12.41;60.33
69359;HTU21D;56520;49.066;8.660;2024-02-21T11:39:04;12.51;59.83
69359;HTU21D;56520;49.066;8.660;2024-02-21T11:41:31;12.62;59.73
69359;HTU21D;56520;49.066;8.660;2024-02-21T11:43:57;12.73;59.04
69359;HTU21D;56520;49.066;8.660;2024-02-21T11:46:22;12.79;59.67
69359;HTU21D;56520;49.066;8.660;2024-02-21T11:48:48;12.92;58.13
69359;HTU21D;56520;49.066;8.660;2024-02-21T11:51:25;12.92;58.92
69359;HTU21D;56520;49.066;8.660;2024-02-21T11:53:54;13.01;58.36
69359;HTU21D;56520;49.066;8.660;2024-02-21T11:56:19;13.10;58.55
69359;HTU21D;56520;49.066;8.660;2024-02-21T11:58:49;13.15;57.08
69359;HTU21D;56520;49.066;8.660;2024-02-21T12:01:15;13.11;57.77
69359;HTU21D;56520;49.066;8.660;2024-02-21T12:03:42;13.15;58.29
69359;HTU21D;56520;49.066;8.660;2024-02-21T12:06:07;13.16;57.15
69359;HTU21D;56520;49.066;8.660;2024-02-21T12:08:43;13.09;57.05
69359;HTU21D;56520;49.066;8.660;2024-02-21T12:11:22;13.03;57.77
69359;HTU21D;56520;49.066;8.660;2024-02-21T12:14:01;13.02;56.18
69359;HTU21D;56520;49.066;8.660;2024-02-21T12:16:28;12.89;56.65
69359;HTU21D;56520;49.066;8.660;2024-02-21T12:18:55;12.85;56.16
69359;HTU21D;56520;49.066;8.660;2024-02-21T12:21:24;12.84;57.51
69359;HTU21D;56520;49.066;8.660;2024-02-21T12:23:49;12.88;56.38
69359;HTU21D;56520;49.066;8.660;2024-02-21T12:26:15;12.87;56.09
69359;HTU21D;56520;49.066;8.660;2024-02-21T12:28:40;12.86;57.81
69359;HTU21D;56520;49.066;8.660;2024-02-21T12:31:06;12.94;57.23
69359;HTU21D;56520;49.066;8.660;2024-02-21T12:33:31;13.00;56.81
69359;HTU21D;56520;49.066;8.660;2024-02-21T12:35:58;13.04;57.27
69359;HTU21D;56520;49.066;8.660;2024-02-21T12:38:23;13.06;56.60
69359;HTU21D;56520;49.066;8.660;2024-02-21T12:40:50;13.07;56.45
69359;HTU21D;56520;49.066;8.660;2024-02-21T12:43:16;13.04;54.75
69359;HTU21D;56520;49.066;8.660;2024-02-21T12:45:41;12.96;55.39
69359;HTU21D;56520;49.066;8.660;2024-02-21T12:48:10;12.93;55.91
69359;HTU21D;56520;49.066;8.660;2024-02-21T12:50:35;12.91;55.22
69359;HTU21D;56520;49.066;8.660;2024-02-21T12:53:01;12.96;56.19
69359;HTU21D;56520;49.066;8.660;2024-02-21T12:55:26;13.08;56.01
69359;HTU21D;56520;49.066;8.660;2024-02-21T12:57:52;13.20;56.42
69359;HTU21D;56520;49.066;8.660;2024-02-21T13:00:18;13.30;55.99
69359;HTU21D;56520;49.066;8.660;2024-02-21T13:02:43;13.35;56.66
69359;HTU21D;56520;49.066;8.660;2024-02-21T13:05:09;13.32;56.89
69359;HTU21D;56520;49.066;8.660;2024-02-21T13:07:35;13.31;56.76
69359;HTU21D;56520;49.066;8.660;2024-02-21T13:10:00;13.33;56.14
69359;HTU21D;56520;49.066;8.660;2024-02-21T13:12:26;13.32;56.36
69359;HTU21D;56520;49.066;8.660;2024-02-21T13:14:55;13.32;55.99
69359;HTU21D;56520;49.066;8.660;2024-02-21T13:17:20;13.27;56.40
69359;HTU21D;56520;49.066;8.660;2024-02-21T13:19:47;13.27;56.83
69359;HTU21D;56520;49.066;8.660;2024-02-21T13:22:13;13.32;55.28
69359;HTU21D;56520;49.066;8.660;2024-02-21T13:24:38;13.26;55.92
69359;HTU21D;56520;49.066;8.660;2024-02-21T13:27:04;13.20;55.84
69359;HTU21D;56520;49.066;8.660;2024-02-21T13:29:29;13.17;56.14
69359;HTU21D;56520;49.066;8.660;2024-02-21T13:31:55;13.15;56.04
69359;HTU21D;56520;49.066;8.660;2024-02-21T13:34:20;13.09;56.76
69359;HTU21D;56520;49.066;8.660;2024-02-21T13:36:49;13.11;56.26
69359;HTU21D;56520;49.066;8.660;2024-02-21T13:39:14;13.06;56.53
69359;HTU21D;56520;49.066;8.660;2024-02-21T13:41:44;12.99;56.99
69359;HTU21D;56520;49.066;8.660;2024-02-21T13:44:10;12.96;57.38
69359;HTU21D;56520;49.066;8.660;2024-02-21T13:46:35;12.96;57.60
69359;HTU21D;56520;49.066;8.660;2024-02-21T13:49:05;12.89;57.91
69359;HTU21D;56520;49.066;8.660;2024-02-21T13:51:33;12.76;58.35
69359;HTU21D;56520;49.066;8.660;2024-02-21T13:54:02;12.66;58.76
69359;HTU21D;56520;49.066;8.660;2024-02-21T13:56:29;12.62;59.08
69359;HTU21D;56520;49.066;8.660;2024-02-21T13:58:54;12.57;59.39
69359;HTU21D;56520;49.066;8.660;2024-02-21T14:01:20;12.57;59.71
69359;HTU21D;56520;49.066;8.660;2024-02-21T14:03:46;12.57;59.43
69359;HTU21D;56520;49.066;8.660;2024-02-21T14:06:11;12.50;59.39
69359;HTU21D;56520;49.066;8.660;2024-02-21T14:08:37;12.50;59.54
69359;HTU21D;56520;49.066;8.660;2024-02-21T14:11:05;12.58;59.27
69359;HTU21D;56520;49.066;8.660;2024-02-21T14:13:31;12.65;58.83
69359;HTU21D;56520;49.066;8.660;2024-02-21T14:15:57;12.69;59.02
69359;HTU21D;56520;49.066;8.660;2024-02-21T14:18:24;12.71;58.75
69359;HTU21D;56520;49.066;8.660;2024-02-21T14:20:50;12.74;58.90
69359;HTU21D;56520;49.066;8.660;2024-02-21T14:23:16;12.73;58.51
69359;HTU21D;56520;49.066;8.660;2024-02-21T14:25:41;12.75;58.66
69359;HTU21D;56520;49.066;8.660;2024-02-21T14:28:08;12.74;58.64
69359;HTU21D;56520;49.066;8.660;2024-02-21T14:30:34;12.73;58.80
69359;HTU21D;56520;49.066;8.660;2024-02-21T14:33:00;12.73;58.67
69359;HTU21D;56520;49.066;8.660;2024-02-21T14:35:25;12.70;58.24
69359;HTU21D;56520;49.066;8.660;2024-02-21T14:37:52;12.60;58.90
69359;HTU21D;56520;49.066;8.660;2024-02-21T14:40:21;12.61;58.99
69359;HTU21D;56520;49.066;8.660;2024-02-21T14:42:46;12.62;59.22
69359;HTU21D;56520;49.066;8.660;2024-02-21T14:45:11;12.64;59.27
69359;HTU21D;56520;49.066;8.660;2024-02-21T14:47:39;12.65;59.36
69359;HTU21D;56520;49.066;8.660;2024-02-21T14:50:05;12.63;59.71
69359;HTU21D;56520;49.066;8.660;2024-02-21T14:52:32;12.56;59.78
69359;HTU21D;56520;49.066;8.660;2024-02-21T14:54:58;12.53;60.22
69359;HTU21D;56520;49.066;8.660;2024-02-21T14:57:25;12.53;60.40
69359;HTU21D;56520;49.066;8.660;2024-02-21T14:59:50;12.50;60.37
69359;HTU21D;56520;49.066;8.660;2024-02-21T15:02:22;12.47;60.20
69359;HTU21D;56520;49.066;8.660;2024-02-21T15:04:48;12.46;58.74
69359;HTU21D;56520;49.066;8.660;2024-02-21T15:07:13;12.43;59.41
69359;HTU21D;56520;49.066;8.660;2024-02-21T15:09:39;12.37;59.80
69359;HTU21D;56520;49.066;8.660;2024-02-21T15:12:05;12.32;60.26
69359;HTU21D;56520;49.066;8.660;2024-02-21T15:14:31;12.26;60.74
69359;HTU21D;56520;49.066;8.660;2024-02-21T15:16:57;12.20;60.19
69359;HTU21D;56520;49.066;8.660;2024-02-21T15:19:22;12.20;60.56
69359;HTU21D;56520;49.066;8.660;2024-02-21T15:21:48;12.21;60.85
69359;HTU21D;56520;49.066;8.660;2024-02-21T15:24:14;12.26;60.75
69359;HTU21D;56520;49.066;8.660;2024-02-21T15:26:39;12.27;60.67
69359;HTU21D;56520;49.066;8.660;2024-02-21T15:29:05;12.22;60.61